Airfield :
LOGIN :

Register | Disclaimer

   EN    FR    IT 

 










Legend :    VFR   Marginal VFR   IFR   Intensive IFR   Very Intensive IFR
Visi :
Ceiling :
>= 8 km
>= 3000ft
5 to 8 km
1000 to 3000 ft
1500m to 5 km
500 to 1000 ft
800 to 1500m
200 to 500 ft
< 800m
< 200 ft
Symbols :   Thunderstorms  Fog  Heavy snow  Heavy precipitations  Wind > 20 kt
SIGMETs :     Misc.  Thunderstorms  Icing  Turbulence  Mountain Waves  Volcanic Ashes






- Airport Elevation : 228 ft
- IATA code : OPO


LPPR - Porto Fr. Sa Carneiro

CURRENT METAR :
  • 241830Z 17008KT 8000 -RA SCT004 SCT011 BKN025 13/12 Q1015

EXPIRED METARs :
  • 241800Z 19010KT 6000 -RA SCT004 SCT011 BKN025 13/12 Q1015
  • 241730Z 19005KT 8000 -RA SCT004 SCT011 BKN025 13/12 Q1015
  • 241700Z 20005KT 8000 -RA FEW011 BKN040 13/12 Q1015
  • 241630Z 21006KT 9999 -RA FEW011 BKN045 13/11 Q1016
  • 241600Z 20007KT 9999 -RA FEW011 13/12 Q1016

TAF TAF LPPR
Valid from the 24 at 18:00 until the 25 at 18:00 UTC


241700Z 2418/2518 18010KT 9999 SCT010 BKN030
BECMG 2418/2421 5000 DZRA BR SCT004 BKN008
TEMPO 2421/2503 2000 +RA BR SCT002 BKN004
BECMG 2422/2424 21015KT
BECMG 2503/2506 26013KT 8000 -RA SCT010 BKN018
TEMPO 2503/2518 4000 RA BR SCT005 BKN010
PROB30
TEMPO 2514/2518 2000 RADZ BR SCT001 BKN003



MET'MAP, your aeronautical weather chart ! - Copyright ORBIFLY December 2007 - Disclaimer

ORBIFLY MET'MAP TEAM :

Programming & Development : Alexandra Zaïnal
Concept & original design : Baudouin d'Aumeries
Assistance for programming : Marc-Olivier Méhu
Technical & hardware support : Manuel Goepfert

Contact : metmap@orbifly.com




SOURCES & CREDITS :

   NOAA